Historique des mesures à Cassis (13260), France
Quotidien Résumé Avril 4, 2017 Unités:  Métrique    US   Métrique/US
« Précédent (Jour)
Suivant (Jour) »
Quotidien Hebdomadaire Mensuel Annuel Période au choix
  Maximum: Minimum: Moyenne:
Température: TemperatureC °C 13.4 °C 17 °C
Point de rosée: DewpointC °C 5.0 °C 7.9 °C
Humidité: Humidity % 41 % 53 %
Vitesse du vent: 0 km/h 0 km/h 19.3 km/h
Rafales: 0 km/h - -
Vent:- - SW
Pression: PressurehPa hPa 1011.4 hPa -
Précipitations: 0.0 mm    
Historical Graphs
 
 
Mesures pour : Avril 4, 2017
Heure Temperature Point de rosée Pression Vent Vitesse du vent Rafales Humidité Pluie (par heure) Conditions
TemperatureC °C DewpointC °C PressurehPa hPa Calm     Humidity % HourlyPrecipMM mm SoftwareType W/m2
00:11 17.2 °C 8.6 °C 1015.1 hPa NNW 26.7 km/h 26.7 km/h 57 % 0.0 mm open2300-1.11 W/m2
01:11 16.1 °C 9.1 °C 1014.8 hPa WNW 31.9 km/h 32.3 km/h 63 % 0.0 mm open2300-1.11 W/m2
02:11 15.4 °C 9.1 °C 1014.4 hPa North 8.9 km/h 8.9 km/h 66 % 0.0 mm open2300-1.11 W/m2
03:11 14.3 °C 8.7 °C 1014.1 hPa Calm   4.7 km/h 69 % 0.0 mm open2300-1.11 W/m2
04:11 13.8 °C 8.6 °C 1013.4 hPa NNW 6.9 km/h 10.9 km/h 71 % 0.0 mm open2300-1.11 W/m2
05:11 13.4 °C 8.2 °C 1013.1 hPa NNW 13.2 km/h 13.2 km/h 71 % 0.0 mm open2300-1.11 W/m2
06:11 13.5 °C 8.3 °C 1013.1 hPa NNW 11.6 km/h 14 km/h 71 % 0.0 mm open2300-1.11 W/m2
07:11 13.7 °C 7.9 °C 1012.8 hPa NW 16.9 km/h 16.9 km/h 68 % 0.0 mm open2300-1.11 W/m2
08:11 13.4 °C 7.8 °C 1013.1 hPa North 12.7 km/h 14.5 km/h 69 % 0.0 mm open2300-1.11 W/m2
09:11 14.9 °C 8.6 °C 1013.1 hPa ESE 2.9 km/h 5.1 km/h 66 % 0.0 mm open2300-1.11 W/m2
10:11 16.4 °C 8.4 °C 1013.1 hPa North 18.7 km/h 18.7 km/h 59 % 0.0 mm open2300-1.11 W/m2
11:11 19.2 °C 9.4 °C 1013.4 hPa NW 11.6 km/h 35.2 km/h 53 % 0.0 mm open2300-1.11 W/m2
12:11 20.2 °C 10.0 °C 1013.8 hPa NNW 48.6 km/h 48.6 km/h 52 % 0.0 mm open2300-1.11 W/m2
13:11 20.8 °C 10.0 °C 1013.4 hPa NW 15.6 km/h 38.8 km/h 50 % 0.0 mm open2300-1.11 W/m2
14:11 21.8 °C 9.9 °C 1013.1 hPa WNW 44.6 km/h 44.6 km/h 47 % 0.0 mm open2300-1.11 W/m2
15:11 22.1 °C 9.9 °C 1012.4 hPa West 19.2 km/h 50.5 km/h 46 % 0.0 mm open2300-1.11 W/m2
16:11 22.1 °C 9.6 °C 1012.1 hPa NNW 30.7 km/h 31.4 km/h 45 % 0.0 mm open2300-1.11 W/m2
17:11 21.9 °C 8.7 °C 1011.7 hPa North 17.4 km/h 17.4 km/h 43 % 0.0 mm open2300-1.11 W/m2
18:11 21.4 °C 7.9 °C 1011.7 hPa NNE 26.2 km/h 26.2 km/h 42 % 0.0 mm open2300-1.11 W/m2
19:11 20.4 °C 6.7 °C 1011.7 hPa NNW 19.6 km/h 34.8 km/h 41 % 0.0 mm open2300-1.11 W/m2
20:11 19.2 °C 6.6 °C 1011.4 hPa NNW 34.1 km/h 57.9 km/h 44 % 0.0 mm open2300-1.11 W/m2
21:11 18.4 °C 5.8 °C 1011.7 hPa NW 23.8 km/h 42.2 km/h 44 % 0.0 mm open2300-1.11 W/m2
22:11 17.8 °C 5.6 °C 1012.1 hPa North 25.4 km/h 27.2 km/h 45 % 0.0 mm open2300-1.11 W/m2
23:11 17.1 °C 5.0 °C 1012.1 hPa NW 16.3 km/h 16.3 km/h 45 % 0.0 mm open2300-1.11 W/m2
Observations météo à CASSIS
WU-History script by Weather Underground - 1 mb